sensor_id;sensor_type;location;lat;lon;timestamp;temperature;humidity
74384;DHT22;62824;52.994;-3.936;2024-03-29T00:01:23;7.00;99.90
74384;DHT22;62824;52.994;-3.936;2024-03-29T00:03:49;7.10;99.90
74384;DHT22;62824;52.994;-3.936;2024-03-29T00:06:15;7.10;99.90
74384;DHT22;62824;52.994;-3.936;2024-03-29T00:08:41;7.10;99.90
74384;DHT22;62824;52.994;-3.936;2024-03-29T00:11:07;7.10;99.90
74384;DHT22;62824;52.994;-3.936;2024-03-29T00:13:36;7.10;99.90
74384;DHT22;62824;52.994;-3.936;2024-03-29T00:16:02;7.10;99.90
74384;DHT22;62824;52.994;-3.936;2024-03-29T00:18:28;7.10;99.90
74384;DHT22;62824;52.994;-3.936;2024-03-29T00:20:54;7.20;99.90
74384;DHT22;62824;52.994;-3.936;2024-03-29T00:23:20;7.20;99.90
74384;DHT22;62824;52.994;-3.936;2024-03-29T00:25:45;7.20;99.90
74384;DHT22;62824;52.994;-3.936;2024-03-29T00:28:11;7.20;99.90
74384;DHT22;62824;52.994;-3.936;2024-03-29T00:30:37;7.20;99.90
74384;DHT22;62824;52.994;-3.936;2024-03-29T00:33:03;7.20;99.90
74384;DHT22;62824;52.994;-3.936;2024-03-29T00:35:32;7.20;99.90
74384;DHT22;62824;52.994;-3.936;2024-03-29T00:37:58;7.20;99.90
74384;DHT22;62824;52.994;-3.936;2024-03-29T00:40:24;7.20;99.90
74384;DHT22;62824;52.994;-3.936;2024-03-29T00:42:50;7.20;99.90
74384;DHT22;62824;52.994;-3.936;2024-03-29T00:45:16;7.20;99.90
74384;DHT22;62824;52.994;-3.936;2024-03-29T00:47:42;7.20;99.90
74384;DHT22;62824;52.994;-3.936;2024-03-29T00:50:08;7.30;99.90
74384;DHT22;62824;52.994;-3.936;2024-03-29T00:52:35;7.20;99.90
74384;DHT22;62824;52.994;-3.936;2024-03-29T00:55:01;7.20;99.90
74384;DHT22;62824;52.994;-3.936;2024-03-29T00:57:28;7.20;99.90
74384;DHT22;62824;52.994;-3.936;2024-03-29T00:59:54;7.30;99.90
74384;DHT22;62824;52.994;-3.936;2024-03-29T01:02:22;7.30;99.90
74384;DHT22;62824;52.994;-3.936;2024-03-29T01:04:49;7.30;99.90
74384;DHT22;62824;52.994;-3.936;2024-03-29T01:07:15;7.30;99.90
74384;DHT22;62824;52.994;-3.936;2024-03-29T01:09:42;7.30;99.90
74384;DHT22;62824;52.994;-3.936;2024-03-29T01:12:09;7.30;99.90
74384;DHT22;62824;52.994;-3.936;2024-03-29T01:14:35;7.30;99.90
74384;DHT22;62824;52.994;-3.936;2024-03-29T01:17:00;7.30;99.90
74384;DHT22;62824;52.994;-3.936;2024-03-29T01:19:27;7.20;99.90
74384;DHT22;62824;52.994;-3.936;2024-03-29T01:21:56;7.20;99.90
74384;DHT22;62824;52.994;-3.936;2024-03-29T01:24:21;7.30;99.90
74384;DHT22;62824;52.994;-3.936;2024-03-29T01:26:47;7.30;99.90
74384;DHT22;62824;52.994;-3.936;2024-03-29T01:29:13;7.30;99.90
74384;DHT22;62824;52.994;-3.936;2024-03-29T01:31:39;7.30;99.90
74384;DHT22;62824;52.994;-3.936;2024-03-29T01:34:05;7.30;99.90
74384;DHT22;62824;52.994;-3.936;2024-03-29T01:36:30;7.30;99.90
74384;DHT22;62824;52.994;-3.936;2024-03-29T01:38:56;7.30;99.90
74384;DHT22;62824;52.994;-3.936;2024-03-29T01:41:24;7.30;99.90
74384;DHT22;62824;52.994;-3.936;2024-03-29T01:43:54;7.30;99.90
74384;DHT22;62824;52.994;-3.936;2024-03-29T01:46:22;7.30;99.90
74384;DHT22;62824;52.994;-3.936;2024-03-29T01:48:50;7.30;99.90
74384;DHT22;62824;52.994;-3.936;2024-03-29T01:51:17;7.30;99.90
74384;DHT22;62824;52.994;-3.936;2024-03-29T01:53:44;7.30;99.90
74384;DHT22;62824;52.994;-3.936;2024-03-29T01:56:10;7.30;99.90
74384;DHT22;62824;52.994;-3.936;2024-03-29T01:58:38;7.30;99.90
74384;DHT22;62824;52.994;-3.936;2024-03-29T02:01:05;7.30;99.90
74384;DHT22;62824;52.994;-3.936;2024-03-29T02:03:32;7.40;99.90
74384;DHT22;62824;52.994;-3.936;2024-03-29T02:05:58;7.30;99.90
74384;DHT22;62824;52.994;-3.936;2024-03-29T02:08:25;7.30;99.90
74384;DHT22;62824;52.994;-3.936;2024-03-29T02:10:51;7.30;99.90
74384;DHT22;62824;52.994;-3.936;2024-03-29T02:13:20;7.30;99.90
74384;DHT22;62824;52.994;-3.936;2024-03-29T02:15:46;7.20;99.90
74384;DHT22;62824;52.994;-3.936;2024-03-29T02:18:12;7.20;99.90
74384;DHT22;62824;52.994;-3.936;2024-03-29T02:20:38;7.20;99.90
74384;DHT22;62824;52.994;-3.936;2024-03-29T02:23:10;7.20;99.90
74384;DHT22;62824;52.994;-3.936;2024-03-29T02:25:36;7.10;99.90
74384;DHT22;62824;52.994;-3.936;2024-03-29T02:28:03;7.20;99.90
74384;DHT22;62824;52.994;-3.936;2024-03-29T02:30:32;7.10;99.90
74384;DHT22;62824;52.994;-3.936;2024-03-29T02:32:58;7.20;99.90
74384;DHT22;62824;52.994;-3.936;2024-03-29T02:35:25;7.10;99.90
74384;DHT22;62824;52.994;-3.936;2024-03-29T02:37:51;7.10;99.90
74384;DHT22;62824;52.994;-3.936;2024-03-29T02:40:17;7.10;99.90
74384;DHT22;62824;52.994;-3.936;2024-03-29T02:42:43;7.00;99.90
74384;DHT22;62824;52.994;-3.936;2024-03-29T02:45:09;7.00;99.90
74384;DHT22;62824;52.994;-3.936;2024-03-29T02:47:35;7.00;99.90
74384;DHT22;62824;52.994;-3.936;2024-03-29T02:50:01;7.00;99.90
74384;DHT22;62824;52.994;-3.936;2024-03-29T02:52:26;7.00;99.90
74384;DHT22;62824;52.994;-3.936;2024-03-29T02:54:54;7.00;99.90
74384;DHT22;62824;52.994;-3.936;2024-03-29T02:57:20;7.00;99.90
74384;DHT22;62824;52.994;-3.936;2024-03-29T02:59:46;7.00;99.90
74384;DHT22;62824;52.994;-3.936;2024-03-29T03:02:12;7.00;99.90
74384;DHT22;62824;52.994;-3.936;2024-03-29T03:04:37;6.90;99.90
74384;DHT22;62824;52.994;-3.936;2024-03-29T03:07:03;6.90;99.90
74384;DHT22;62824;52.994;-3.936;2024-03-29T03:09:47;6.90;99.90
74384;DHT22;62824;52.994;-3.936;2024-03-29T03:12:31;6.90;99.90
74384;DHT22;62824;52.994;-3.936;2024-03-29T03:14:58;6.90;99.90
74384;DHT22;62824;52.994;-3.936;2024-03-29T03:17:28;6.90;99.90
74384;DHT22;62824;52.994;-3.936;2024-03-29T03:19:54;7.00;99.90
74384;DHT22;62824;52.994;-3.936;2024-03-29T03:22:20;6.90;99.90
74384;DHT22;62824;52.994;-3.936;2024-03-29T03:24:46;6.90;99.90
74384;DHT22;62824;52.994;-3.936;2024-03-29T03:27:12;6.90;99.90
74384;DHT22;62824;52.994;-3.936;2024-03-29T03:29:38;6.90;99.90
74384;DHT22;62824;52.994;-3.936;2024-03-29T03:32:05;6.80;99.90
74384;DHT22;62824;52.994;-3.936;2024-03-29T03:34:31;6.80;99.90
74384;DHT22;62824;52.994;-3.936;2024-03-29T03:36:57;6.80;99.90
74384;DHT22;62824;52.994;-3.936;2024-03-29T03:39:24;6.80;99.90
74384;DHT22;62824;52.994;-3.936;2024-03-29T03:41:50;6.80;99.90
74384;DHT22;62824;52.994;-3.936;2024-03-29T03:44:16;6.80;99.90
74384;DHT22;62824;52.994;-3.936;2024-03-29T03:46:42;6.80;99.90
74384;DHT22;62824;52.994;-3.936;2024-03-29T03:49:09;6.80;99.90
74384;DHT22;62824;52.994;-3.936;2024-03-29T03:51:34;6.80;99.90
74384;DHT22;62824;52.994;-3.936;2024-03-29T03:54:00;6.80;99.90
74384;DHT22;62824;52.994;-3.936;2024-03-29T03:56:26;6.80;99.90
74384;DHT22;62824;52.994;-3.936;2024-03-29T03:58:52;6.80;99.90
74384;DHT22;62824;52.994;-3.936;2024-03-29T04:01:18;6.70;99.90
74384;DHT22;62824;52.994;-3.936;2024-03-29T04:03:44;6.70;99.90
74384;DHT22;62824;52.994;-3.936;2024-03-29T04:06:09;6.70;99.90
74384;DHT22;62824;52.994;-3.936;2024-03-29T04:08:35;6.70;99.90
74384;DHT22;62824;52.994;-3.936;2024-03-29T04:11:04;6.60;99.90
74384;DHT22;62824;52.994;-3.936;2024-03-29T04:13:31;6.50;99.90
74384;DHT22;62824;52.994;-3.936;2024-03-29T04:16:15;6.50;99.90
74384;DHT22;62824;52.994;-3.936;2024-03-29T04:18:40;6.40;99.90
74384;DHT22;62824;52.994;-3.936;2024-03-29T04:21:06;6.30;99.90
74384;DHT22;62824;52.994;-3.936;2024-03-29T04:23:32;6.20;99.90
74384;DHT22;62824;52.994;-3.936;2024-03-29T04:25:59;6.20;99.90
74384;DHT22;62824;52.994;-3.936;2024-03-29T04:28:25;6.20;99.90
74384;DHT22;62824;52.994;-3.936;2024-03-29T04:30:56;6.10;99.90
74384;DHT22;62824;52.994;-3.936;2024-03-29T04:33:22;6.10;99.90
74384;DHT22;62824;52.994;-3.936;2024-03-29T04:38:21;6.10;99.90
74384;DHT22;62824;52.994;-3.936;2024-03-29T04:40:51;6.10;99.90
74384;DHT22;62824;52.994;-3.936;2024-03-29T04:43:18;6.10;99.90
74384;DHT22;62824;52.994;-3.936;2024-03-29T04:45:44;6.10;99.90
74384;DHT22;62824;52.994;-3.936;2024-03-29T04:48:11;6.10;99.90
74384;DHT22;62824;52.994;-3.936;2024-03-29T04:50:37;6.00;99.90
74384;DHT22;62824;52.994;-3.936;2024-03-29T04:53:03;6.00;99.90
74384;DHT22;62824;52.994;-3.936;2024-03-29T04:55:31;6.00;99.90
74384;DHT22;62824;52.994;-3.936;2024-03-29T04:57:57;6.10;99.90
74384;DHT22;62824;52.994;-3.936;2024-03-29T05:00:23;6.10;99.90
74384;DHT22;62824;52.994;-3.936;2024-03-29T05:02:49;6.10;99.90
74384;DHT22;62824;52.994;-3.936;2024-03-29T05:05:15;6.10;99.90
74384;DHT22;62824;52.994;-3.936;2024-03-29T05:07:40;6.10;99.90
74384;DHT22;62824;52.994;-3.936;2024-03-29T05:10:07;6.20;99.90
74384;DHT22;62824;52.994;-3.936;2024-03-29T05:12:35;6.20;99.90
74384;DHT22;62824;52.994;-3.936;2024-03-29T05:15:01;6.20;99.90
74384;DHT22;62824;52.994;-3.936;2024-03-29T05:17:27;6.20;99.90
74384;DHT22;62824;52.994;-3.936;2024-03-29T05:19:53;6.20;99.90
74384;DHT22;62824;52.994;-3.936;2024-03-29T05:22:19;6.20;99.90
74384;DHT22;62824;52.994;-3.936;2024-03-29T05:24:45;6.20;99.90
74384;DHT22;62824;52.994;-3.936;2024-03-29T05:27:12;6.20;99.90
74384;DHT22;62824;52.994;-3.936;2024-03-29T05:29:38;6.20;99.90
74384;DHT22;62824;52.994;-3.936;2024-03-29T05:32:04;6.20;99.90
74384;DHT22;62824;52.994;-3.936;2024-03-29T05:34:30;6.20;99.90
74384;DHT22;62824;52.994;-3.936;2024-03-29T05:36:57;6.10;99.90
74384;DHT22;62824;52.994;-3.936;2024-03-29T05:39:23;6.20;99.90
74384;DHT22;62824;52.994;-3.936;2024-03-29T05:41:49;6.20;99.90
74384;DHT22;62824;52.994;-3.936;2024-03-29T05:44:14;6.10;99.90
74384;DHT22;62824;52.994;-3.936;2024-03-29T05:46:40;6.10;99.90
74384;DHT22;62824;52.994;-3.936;2024-03-29T05:49:06;6.10;99.90
74384;DHT22;62824;52.994;-3.936;2024-03-29T05:51:32;6.10;99.90
74384;DHT22;62824;52.994;-3.936;2024-03-29T05:53:59;6.10;99.90
74384;DHT22;62824;52.994;-3.936;2024-03-29T05:56:26;6.20;99.90
74384;DHT22;62824;52.994;-3.936;2024-03-29T05:58:54;6.20;99.90
74384;DHT22;62824;52.994;-3.936;2024-03-29T06:01:19;6.20;99.90
74384;DHT22;62824;52.994;-3.936;2024-03-29T06:03:45;6.20;99.90
74384;DHT22;62824;52.994;-3.936;2024-03-29T06:06:11;6.20;99.90
74384;DHT22;62824;52.994;-3.936;2024-03-29T06:08:45;6.30;99.90
74384;DHT22;62824;52.994;-3.936;2024-03-29T06:11:11;6.40;99.90
74384;DHT22;62824;52.994;-3.936;2024-03-29T06:13:37;6.40;99.90
74384;DHT22;62824;52.994;-3.936;2024-03-29T06:16:19;6.40;99.90
74384;DHT22;62824;52.994;-3.936;2024-03-29T06:19:03;6.40;99.90
74384;DHT22;62824;52.994;-3.936;2024-03-29T06:21:29;6.40;99.90
74384;DHT22;62824;52.994;-3.936;2024-03-29T06:24:01;6.40;99.90
74384;DHT22;62824;52.994;-3.936;2024-03-29T06:26:26;6.40;99.90
74384;DHT22;62824;52.994;-3.936;2024-03-29T06:28:52;6.40;99.90
74384;DHT22;62824;52.994;-3.936;2024-03-29T06:31:21;6.40;99.90
74384;DHT22;62824;52.994;-3.936;2024-03-29T06:33:47;6.50;99.90
74384;DHT22;62824;52.994;-3.936;2024-03-29T06:36:13;6.50;99.90
74384;DHT22;62824;52.994;-3.936;2024-03-29T06:38:38;6.60;99.90
74384;DHT22;62824;52.994;-3.936;2024-03-29T06:41:04;6.70;99.90
74384;DHT22;62824;52.994;-3.936;2024-03-29T06:43:30;6.70;99.90
74384;DHT22;62824;52.994;-3.936;2024-03-29T06:45:55;6.70;99.90
74384;DHT22;62824;52.994;-3.936;2024-03-29T06:48:22;6.80;99.90
74384;DHT22;62824;52.994;-3.936;2024-03-29T06:50:48;6.80;99.90
74384;DHT22;62824;52.994;-3.936;2024-03-29T06:53:15;6.90;99.90
74384;DHT22;62824;52.994;-3.936;2024-03-29T06:55:41;6.90;99.90
74384;DHT22;62824;52.994;-3.936;2024-03-29T06:58:07;6.90;99.90
74384;DHT22;62824;52.994;-3.936;2024-03-29T07:00:33;6.80;99.90
74384;DHT22;62824;52.994;-3.936;2024-03-29T07:02:59;6.90;99.90
74384;DHT22;62824;52.994;-3.936;2024-03-29T07:05:24;6.90;99.90
74384;DHT22;62824;52.994;-3.936;2024-03-29T07:07:50;7.00;99.90
74384;DHT22;62824;52.994;-3.936;2024-03-29T07:10:16;7.40;99.90
74384;DHT22;62824;52.994;-3.936;2024-03-29T07:12:44;7.50;99.90
74384;DHT22;62824;52.994;-3.936;2024-03-29T07:15:10;7.40;99.90
74384;DHT22;62824;52.994;-3.936;2024-03-29T07:17:35;7.30;99.90
74384;DHT22;62824;52.994;-3.936;2024-03-29T07:20:01;7.30;99.90
74384;DHT22;62824;52.994;-3.936;2024-03-29T07:22:28;7.20;99.90
74384;DHT22;62824;52.994;-3.936;2024-03-29T07:24:54;7.20;99.90
74384;DHT22;62824;52.994;-3.936;2024-03-29T07:27:20;7.30;99.90
74384;DHT22;62824;52.994;-3.936;2024-03-29T07:29:46;7.30;99.90
74384;DHT22;62824;52.994;-3.936;2024-03-29T07:32:12;7.30;99.90
74384;DHT22;62824;52.994;-3.936;2024-03-29T07:34:38;7.30;99.90
74384;DHT22;62824;52.994;-3.936;2024-03-29T07:37:05;7.30;99.90
74384;DHT22;62824;52.994;-3.936;2024-03-29T07:39:31;7.30;99.90
74384;DHT22;62824;52.994;-3.936;2024-03-29T07:41:57;7.40;99.90
74384;DHT22;62824;52.994;-3.936;2024-03-29T07:44:23;7.40;99.90
74384;DHT22;62824;52.994;-3.936;2024-03-29T07:46:48;7.50;99.90
74384;DHT22;62824;52.994;-3.936;2024-03-29T07:49:14;7.50;99.90
74384;DHT22;62824;52.994;-3.936;2024-03-29T07:51:40;7.60;99.90
74384;DHT22;62824;52.994;-3.936;2024-03-29T07:54:06;7.60;99.90
74384;DHT22;62824;52.994;-3.936;2024-03-29T07:56:32;7.70;99.90
74384;DHT22;62824;52.994;-3.936;2024-03-29T07:58:58;7.70;99.90
74384;DHT22;62824;52.994;-3.936;2024-03-29T08:01:24;7.90;99.90
74384;DHT22;62824;52.994;-3.936;2024-03-29T08:03:53;8.40;99.90
74384;DHT22;62824;52.994;-3.936;2024-03-29T08:06:19;9.80;99.90
74384;DHT22;62824;52.994;-3.936;2024-03-29T08:08:45;9.90;99.90
74384;DHT22;62824;52.994;-3.936;2024-03-29T08:11:11;9.80;99.90
74384;DHT22;62824;52.994;-3.936;2024-03-29T08:13:38;9.50;99.90
74384;DHT22;62824;52.994;-3.936;2024-03-29T08:16:05;9.10;99.90
74384;DHT22;62824;52.994;-3.936;2024-03-29T08:18:34;8.90;99.90
74384;DHT22;62824;52.994;-3.936;2024-03-29T08:21:00;8.80;99.90
74384;DHT22;62824;52.994;-3.936;2024-03-29T08:23:27;8.70;99.90
74384;DHT22;62824;52.994;-3.936;2024-03-29T08:25:53;8.40;99.90
74384;DHT22;62824;52.994;-3.936;2024-03-29T08:28:22;8.20;99.90
74384;DHT22;62824;52.994;-3.936;2024-03-29T08:31:03;7.70;99.90
74384;DHT22;62824;52.994;-3.936;2024-03-29T08:33:29;7.40;99.90
74384;DHT22;62824;52.994;-3.936;2024-03-29T08:35:56;7.10;99.90
74384;DHT22;62824;52.994;-3.936;2024-03-29T08:38:23;7.00;99.90
74384;DHT22;62824;52.994;-3.936;2024-03-29T08:40:48;6.90;99.90
74384;DHT22;62824;52.994;-3.936;2024-03-29T08:43:15;7.00;99.90
74384;DHT22;62824;52.994;-3.936;2024-03-29T08:45:44;7.00;99.90
74384;DHT22;62824;52.994;-3.936;2024-03-29T08:48:09;7.10;99.90
74384;DHT22;62824;52.994;-3.936;2024-03-29T08:50:36;7.10;99.90
74384;DHT22;62824;52.994;-3.936;2024-03-29T08:53:02;7.20;99.90
74384;DHT22;62824;52.994;-3.936;2024-03-29T08:55:29;7.20;99.90
74384;DHT22;62824;52.994;-3.936;2024-03-29T08:57:57;7.10;99.90
74384;DHT22;62824;52.994;-3.936;2024-03-29T09:00:24;7.00;99.90
74384;DHT22;62824;52.994;-3.936;2024-03-29T09:02:50;7.20;99.90
74384;DHT22;62824;52.994;-3.936;2024-03-29T09:05:16;7.50;99.90
74384;DHT22;62824;52.994;-3.936;2024-03-29T09:07:42;7.90;99.90
74384;DHT22;62824;52.994;-3.936;2024-03-29T09:10:12;8.00;99.90
74384;DHT22;62824;52.994;-3.936;2024-03-29T09:12:38;8.40;99.90
74384;DHT22;62824;52.994;-3.936;2024-03-29T09:15:06;9.00;99.90
74384;DHT22;62824;52.994;-3.936;2024-03-29T09:17:39;9.70;99.90
74384;DHT22;62824;52.994;-3.936;2024-03-29T09:20:06;10.20;99.90
74384;DHT22;62824;52.994;-3.936;2024-03-29T09:22:32;10.70;99.90
74384;DHT22;62824;52.994;-3.936;2024-03-29T09:24:58;11.00;99.90
74384;DHT22;62824;52.994;-3.936;2024-03-29T09:27:26;11.10;99.90
74384;DHT22;62824;52.994;-3.936;2024-03-29T09:29:51;11.50;99.90
74384;DHT22;62824;52.994;-3.936;2024-03-29T09:32:17;11.40;99.90
74384;DHT22;62824;52.994;-3.936;2024-03-29T09:34:45;11.30;99.90
74384;DHT22;62824;52.994;-3.936;2024-03-29T09:37:11;11.80;99.90
74384;DHT22;62824;52.994;-3.936;2024-03-29T09:39:37;12.30;99.90
74384;DHT22;62824;52.994;-3.936;2024-03-29T09:42:03;11.80;99.90
74384;DHT22;62824;52.994;-3.936;2024-03-29T09:44:33;12.80;99.90
74384;DHT22;62824;52.994;-3.936;2024-03-29T09:47:05;13.00;99.90
74384;DHT22;62824;52.994;-3.936;2024-03-29T09:49:32;12.90;99.90
74384;DHT22;62824;52.994;-3.936;2024-03-29T09:52:01;12.80;99.90
74384;DHT22;62824;52.994;-3.936;2024-03-29T09:54:30;12.10;99.90
74384;DHT22;62824;52.994;-3.936;2024-03-29T09:56:59;11.40;99.90
74384;DHT22;62824;52.994;-3.936;2024-03-29T09:59:25;11.10;99.90
74384;DHT22;62824;52.994;-3.936;2024-03-29T10:01:54;11.70;99.90
74384;DHT22;62824;52.994;-3.936;2024-03-29T10:04:23;13.00;99.90
74384;DHT22;62824;52.994;-3.936;2024-03-29T10:06:50;14.00;99.90
74384;DHT22;62824;52.994;-3.936;2024-03-29T10:09:18;13.90;97.50
74384;DHT22;62824;52.994;-3.936;2024-03-29T10:11:44;14.10;97.30
74384;DHT22;62824;52.994;-3.936;2024-03-29T10:14:11;14.80;80.30
74384;DHT22;62824;52.994;-3.936;2024-03-29T10:16:36;15.00;60.00
74384;DHT22;62824;52.994;-3.936;2024-03-29T10:19:03;14.70;49.80
74384;DHT22;62824;52.994;-3.936;2024-03-29T10:21:30;14.40;61.20
74384;DHT22;62824;52.994;-3.936;2024-03-29T10:23:55;15.20;41.20
74384;DHT22;62824;52.994;-3.936;2024-03-29T10:26:22;15.00;37.60
74384;DHT22;62824;52.994;-3.936;2024-03-29T10:28:48;14.80;40.90
74384;DHT22;62824;52.994;-3.936;2024-03-29T10:31:14;15.40;33.70
74384;DHT22;62824;52.994;-3.936;2024-03-29T10:33:42;14.20;37.70
74384;DHT22;62824;52.994;-3.936;2024-03-29T10:36:13;14.90;42.50
74384;DHT22;62824;52.994;-3.936;2024-03-29T10:38:40;15.60;32.10
74384;DHT22;62824;52.994;-3.936;2024-03-29T10:41:07;14.90;28.10
74384;DHT22;62824;52.994;-3.936;2024-03-29T10:43:33;14.70;31.40
74384;DHT22;62824;52.994;-3.936;2024-03-29T10:46:03;13.90;30.00
74384;DHT22;62824;52.994;-3.936;2024-03-29T10:48:31;13.70;34.00
74384;DHT22;62824;52.994;-3.936;2024-03-29T10:50:58;13.20;32.80
74384;DHT22;62824;52.994;-3.936;2024-03-29T10:53:26;12.80;36.60
74384;DHT22;62824;52.994;-3.936;2024-03-29T10:55:58;12.80;35.30
74384;DHT22;62824;52.994;-3.936;2024-03-29T10:58:35;12.40;28.40
74384;DHT22;62824;52.994;-3.936;2024-03-29T11:01:01;12.20;35.00
74384;DHT22;62824;52.994;-3.936;2024-03-29T11:03:37;12.20;41.20
74384;DHT22;62824;52.994;-3.936;2024-03-29T11:06:04;12.00;44.10
74384;DHT22;62824;52.994;-3.936;2024-03-29T11:08:35;11.80;47.80
74384;DHT22;62824;52.994;-3.936;2024-03-29T11:11:04;11.80;48.70
74384;DHT22;62824;52.994;-3.936;2024-03-29T11:14:03;11.70;48.60
74384;DHT22;62824;52.994;-3.936;2024-03-29T11:16:32;11.70;51.80
74384;DHT22;62824;52.994;-3.936;2024-03-29T11:18:59;11.60;49.80
74384;DHT22;62824;52.994;-3.936;2024-03-29T11:21:27;11.50;59.90
74384;DHT22;62824;52.994;-3.936;2024-03-29T11:23:54;11.50;62.30
74384;DHT22;62824;52.994;-3.936;2024-03-29T11:26:23;11.50;67.80
74384;DHT22;62824;52.994;-3.936;2024-03-29T11:28:52;11.50;67.50
74384;DHT22;62824;52.994;-3.936;2024-03-29T11:31:22;11.50;70.70
74384;DHT22;62824;52.994;-3.936;2024-03-29T11:33:49;11.50;69.60
74384;DHT22;62824;52.994;-3.936;2024-03-29T11:36:24;11.60;70.60
74384;DHT22;62824;52.994;-3.936;2024-03-29T11:38:55;11.50;67.70
74384;DHT22;62824;52.994;-3.936;2024-03-29T11:41:26;11.30;76.60
74384;DHT22;62824;52.994;-3.936;2024-03-29T11:43:53;11.40;75.80
74384;DHT22;62824;52.994;-3.936;2024-03-29T11:46:20;11.30;74.90
74384;DHT22;62824;52.994;-3.936;2024-03-29T11:48:46;11.10;74.90
74384;DHT22;62824;52.994;-3.936;2024-03-29T11:51:16;11.00;97.10
74384;DHT22;62824;52.994;-3.936;2024-03-29T11:53:44;10.80;99.90
74384;DHT22;62824;52.994;-3.936;2024-03-29T11:56:10;10.70;99.90
74384;DHT22;62824;52.994;-3.936;2024-03-29T11:58:37;10.60;99.90
74384;DHT22;62824;52.994;-3.936;2024-03-29T12:01:04;10.70;99.90
74384;DHT22;62824;52.994;-3.936;2024-03-29T12:03:31;10.80;99.90
74384;DHT22;62824;52.994;-3.936;2024-03-29T12:05:59;10.80;99.90
74384;DHT22;62824;52.994;-3.936;2024-03-29T12:08:31;10.90;99.90
74384;DHT22;62824;52.994;-3.936;2024-03-29T12:11:02;10.80;99.90
74384;DHT22;62824;52.994;-3.936;2024-03-29T12:13:29;10.80;99.90
74384;DHT22;62824;52.994;-3.936;2024-03-29T12:15:55;10.90;99.90
74384;DHT22;62824;52.994;-3.936;2024-03-29T12:18:22;10.80;99.90
74384;DHT22;62824;52.994;-3.936;2024-03-29T12:20:49;10.70;99.90
74384;DHT22;62824;52.994;-3.936;2024-03-29T12:23:20;10.50;99.90
74384;DHT22;62824;52.994;-3.936;2024-03-29T12:25:47;10.40;99.90
74384;DHT22;62824;52.994;-3.936;2024-03-29T12:28:14;11.00;99.90
74384;DHT22;62824;52.994;-3.936;2024-03-29T12:30:43;11.30;99.90
74384;DHT22;62824;52.994;-3.936;2024-03-29T12:33:12;11.40;99.90
74384;DHT22;62824;52.994;-3.936;2024-03-29T12:35:44;12.40;99.90
74384;DHT22;62824;52.994;-3.936;2024-03-29T12:38:12;12.50;99.90
74384;DHT22;62824;52.994;-3.936;2024-03-29T12:40:45;12.30;99.90
74384;DHT22;62824;52.994;-3.936;2024-03-29T12:43:13;11.80;99.90
74384;DHT22;62824;52.994;-3.936;2024-03-29T12:45:41;11.30;99.90
74384;DHT22;62824;52.994;-3.936;2024-03-29T12:48:16;10.80;99.90
74384;DHT22;62824;52.994;-3.936;2024-03-29T12:50:43;10.50;99.90
74384;DHT22;62824;52.994;-3.936;2024-03-29T12:53:11;10.10;99.90
74384;DHT22;62824;52.994;-3.936;2024-03-29T12:55:37;10.10;99.90
74384;DHT22;62824;52.994;-3.936;2024-03-29T12:58:08;10.00;99.90
74384;DHT22;62824;52.994;-3.936;2024-03-29T13:00:37;9.80;99.90
74384;DHT22;62824;52.994;-3.936;2024-03-29T13:03:03;9.70;99.90
74384;DHT22;62824;52.994;-3.936;2024-03-29T13:05:29;9.50;99.90
74384;DHT22;62824;52.994;-3.936;2024-03-29T13:08:07;9.40;99.90
74384;DHT22;62824;52.994;-3.936;2024-03-29T13:10:34;9.60;99.90
74384;DHT22;62824;52.994;-3.936;2024-03-29T13:13:00;9.80;99.90
74384;DHT22;62824;52.994;-3.936;2024-03-29T13:15:27;10.00;99.90
74384;DHT22;62824;52.994;-3.936;2024-03-29T13:17:55;10.10;99.90
74384;DHT22;62824;52.994;-3.936;2024-03-29T13:20:22;10.30;99.90
74384;DHT22;62824;52.994;-3.936;2024-03-29T13:22:49;10.30;99.90
74384;DHT22;62824;52.994;-3.936;2024-03-29T13:25:16;10.60;99.90
74384;DHT22;62824;52.994;-3.936;2024-03-29T13:27:44;10.60;99.90
74384;DHT22;62824;52.994;-3.936;2024-03-29T13:30:11;10.50;99.90
74384;DHT22;62824;52.994;-3.936;2024-03-29T13:32:42;10.10;99.90
74384;DHT22;62824;52.994;-3.936;2024-03-29T13:35:10;10.00;99.90
74384;DHT22;62824;52.994;-3.936;2024-03-29T13:37:40;10.20;99.90
74384;DHT22;62824;52.994;-3.936;2024-03-29T13:40:10;10.30;99.90
74384;DHT22;62824;52.994;-3.936;2024-03-29T13:42:36;10.40;99.90
74384;DHT22;62824;52.994;-3.936;2024-03-29T13:45:06;10.40;99.90
74384;DHT22;62824;52.994;-3.936;2024-03-29T13:47:34;10.40;99.90
74384;DHT22;62824;52.994;-3.936;2024-03-29T13:50:00;10.50;99.90
74384;DHT22;62824;52.994;-3.936;2024-03-29T13:52:25;10.40;99.90
74384;DHT22;62824;52.994;-3.936;2024-03-29T13:54:53;10.30;99.90
74384;DHT22;62824;52.994;-3.936;2024-03-29T13:57:19;10.20;99.90
74384;DHT22;62824;52.994;-3.936;2024-03-29T13:59:45;10.00;99.90
74384;DHT22;62824;52.994;-3.936;2024-03-29T14:02:12;9.80;99.90
74384;DHT22;62824;52.994;-3.936;2024-03-29T14:04:42;9.60;99.90
74384;DHT22;62824;52.994;-3.936;2024-03-29T14:07:09;9.40;99.90
74384;DHT22;62824;52.994;-3.936;2024-03-29T14:09:37;9.30;99.90
74384;DHT22;62824;52.994;-3.936;2024-03-29T14:12:04;9.20;99.90
74384;DHT22;62824;52.994;-3.936;2024-03-29T14:14:30;9.20;99.90
74384;DHT22;62824;52.994;-3.936;2024-03-29T14:16:56;9.20;99.90
74384;DHT22;62824;52.994;-3.936;2024-03-29T14:19:22;10.00;99.90
74384;DHT22;62824;52.994;-3.936;2024-03-29T14:21:48;10.90;99.90
74384;DHT22;62824;52.994;-3.936;2024-03-29T14:24:14;11.20;99.90
74384;DHT22;62824;52.994;-3.936;2024-03-29T14:26:44;10.80;99.90
74384;DHT22;62824;52.994;-3.936;2024-03-29T14:29:09;10.50;99.90
74384;DHT22;62824;52.994;-3.936;2024-03-29T14:31:37;10.20;99.90
74384;DHT22;62824;52.994;-3.936;2024-03-29T14:34:03;10.00;99.90
74384;DHT22;62824;52.994;-3.936;2024-03-29T14:36:29;10.00;99.90
74384;DHT22;62824;52.994;-3.936;2024-03-29T14:38:58;10.30;99.90
74384;DHT22;62824;52.994;-3.936;2024-03-29T14:41:26;10.80;99.90
74384;DHT22;62824;52.994;-3.936;2024-03-29T14:43:52;10.90;99.90
74384;DHT22;62824;52.994;-3.936;2024-03-29T14:46:18;10.80;99.90
74384;DHT22;62824;52.994;-3.936;2024-03-29T14:48:47;10.80;99.90
74384;DHT22;62824;52.994;-3.936;2024-03-29T14:51:13;11.00;99.90
74384;DHT22;62824;52.994;-3.936;2024-03-29T14:53:38;10.80;99.90
74384;DHT22;62824;52.994;-3.936;2024-03-29T14:56:05;10.90;99.90
74384;DHT22;62824;52.994;-3.936;2024-03-29T14:58:31;10.80;99.90
74384;DHT22;62824;52.994;-3.936;2024-03-29T15:00:57;10.80;99.90
74384;DHT22;62824;52.994;-3.936;2024-03-29T15:03:22;10.70;99.90
74384;DHT22;62824;52.994;-3.936;2024-03-29T15:05:49;10.60;99.90
74384;DHT22;62824;52.994;-3.936;2024-03-29T15:08:15;10.60;99.90
74384;DHT22;62824;52.994;-3.936;2024-03-29T15:10:44;10.70;99.90
74384;DHT22;62824;52.994;-3.936;2024-03-29T15:13:10;10.60;99.90
74384;DHT22;62824;52.994;-3.936;2024-03-29T15:15:36;10.60;99.90
74384;DHT22;62824;52.994;-3.936;2024-03-29T15:18:04;10.40;99.90
74384;DHT22;62824;52.994;-3.936;2024-03-29T15:20:32;10.10;99.90
74384;DHT22;62824;52.994;-3.936;2024-03-29T15:22:58;9.80;99.90
74384;DHT22;62824;52.994;-3.936;2024-03-29T15:25:24;9.70;99.90
74384;DHT22;62824;52.994;-3.936;2024-03-29T15:27:50;9.70;99.90